Time;durP1;ratioP1;P1;durP2;ratioP2;P2;SDS_P1;SDS_P2;PMS_P1;PMS_P2;Temp;Humidity;BMP_temperature;BMP_pressure;BME280_temperature;BME280_humidity;BME280_pressure;Samples;Min_cycle;Max_cycle;Signal;HPM_P1;HPM_P2
2022/09/02 00:00:59;;;;;;;17.83;9.90;;;;;;;23.14;97.48;99469.50;5103336;28;20058;-68
2022/09/02 00:03:29;;;;;;;17.77;9.87;;;;;;;23.02;99.82;99465.28;5102922;28;20031;-67
2022/09/02 00:05:56;;;;;;;18.92;10.45;;;;;;;23.07;100.00;99465.38;5102037;28;20226;-68
2022/09/02 00:08:21;;;;;;;21.65;10.77;;;;;;;23.13;100.00;99469.75;5101937;28;20032;-67
2022/09/02 00:10:48;;;;;;;15.32;10.05;;;;;;;23.22;100.00;99460.97;5102645;28;20035;-68
2022/09/02 00:13:18;;;;;;;16.38;11.10;;;;;;;23.19;100.00;99463.34;5103165;28;20036;-68
2022/09/02 00:15:46;;;;;;;18.80;10.80;;;;;;;23.22;100.00;99454.75;5102983;28;20027;-68
2022/09/02 00:18:12;;;;;;;19.50;11.38;;;;;;;23.25;100.00;99454.25;5103143;28;20237;-68
2022/09/02 00:20:40;;;;;;;20.20;11.00;;;;;;;23.42;100.00;99457.69;5102694;28;20352;-68
2022/09/02 00:23:07;;;;;;;19.15;11.38;;;;;;;23.33;100.00;99458.38;5103052;28;20027;-68
2022/09/02 00:25:33;;;;;;;18.73;11.18;;;;;;;23.41;100.00;99456.06;5102404;28;20036;-68
2022/09/02 00:27:59;;;;;;;18.92;11.50;;;;;;;23.41;100.00;99455.25;5102888;28;20028;-68
2022/09/02 00:30:25;;;;;;;21.73;12.02;;;;;;;23.42;100.00;99459.56;5102778;28;20218;-68
2022/09/02 00:32:50;;;;;;;16.83;10.75;;;;;;;23.68;100.00;99461.53;5102383;28;20110;-68
2022/09/02 00:35:16;;;;;;;20.05;11.35;;;;;;;23.56;100.00;99464.38;5102824;28;20036;-68
2022/09/02 00:37:41;;;;;;;17.58;11.75;;;;;;;23.54;100.00;99465.66;5102634;28;20120;-67
2022/09/02 00:40:10;;;;;;;22.27;11.77;;;;;;;23.57;100.00;99459.78;5102539;28;20039;-68
2022/09/02 00:42:36;;;;;;;18.65;11.57;;;;;;;23.58;100.00;99463.28;5102582;28;20204;-68
2022/09/02 00:45:03;;;;;;;15.80;11.10;;;;;;;23.47;100.00;99467.75;5102348;28;20032;-68
2022/09/02 00:47:32;;;;;;;16.63;10.50;;;;;;;23.46;100.00;99458.00;5101943;28;20038;-68
2022/09/02 00:49:59;;;;;;;21.63;11.10;;;;;;;23.51;100.00;99449.94;5102511;28;20040;-68
2022/09/02 00:52:32;;;;;;;22.92;10.95;;;;;;;23.30;100.00;99454.31;5102356;28;20796;-67
2022/09/02 00:55:06;;;;;;;18.85;10.98;;;;;;;23.24;100.00;99453.44;5083153;28;20036;-68
2022/09/02 00:57:58;;;;;;;24.92;11.90;;;;;;;23.29;100.00;99462.66;5102012;28;20051;-68
2022/09/02 01:00:27;;;;;;;20.75;12.13;;;;;;;23.06;100.00;99456.44;5102580;28;20104;-68
2022/09/02 01:03:05;;;;;;;22.55;11.35;;;;;;;23.09;100.00;99460.53;5101760;28;20092;-68
2022/09/02 01:05:34;;;;;;;27.15;13.38;;;;;;;22.96;100.00;99455.50;5102022;28;20043;-67
2022/09/02 01:07:59;;;;;;;26.83;13.13;;;;;;;23.02;100.00;99454.50;5102115;28;20041;-68
2022/09/02 01:10:33;;;;;;;23.70;14.05;;;;;;;22.84;100.00;99463.66;5101176;28;20036;-68
2022/09/02 01:13:05;;;;;;;27.92;14.57;;;;;;;22.71;100.00;99455.91;5102119;28;20103;-68
2022/09/02 01:15:32;;;;;;;22.85;14.25;;;;;;;22.75;100.00;99449.75;5101768;28;20043;-68
2022/09/02 01:17:58;;;;;;;23.02;13.98;;;;;;;22.70;100.00;99451.56;5101546;28;20039;-68
2022/09/02 01:20:25;;;;;;;21.40;14.32;;;;;;;22.84;100.00;99445.59;5102024;28;20388;-67
2022/09/02 01:22:51;;;;;;;24.90;13.88;;;;;;;22.52;100.00;99458.88;5101640;28;20040;-68
2022/09/02 01:25:22;;;;;;;30.67;14.90;;;;;;;22.61;100.00;99446.59;5101361;28;20062;-68
2022/09/02 01:27:49;;;;;;;23.48;13.85;;;;;;;22.46;100.00;99453.63;5101696;28;20252;-67
2022/09/02 01:30:19;;;;;;;27.35;15.38;;;;;;;22.50;100.00;99438.59;5101610;28;20032;-68
2022/09/02 01:32:45;;;;;;;26.20;15.90;;;;;;;22.53;100.00;99438.09;5101559;28;20058;-67
2022/09/02 01:35:11;;;;;;;27.27;15.38;;;;;;;22.49;100.00;99437.78;5101349;28;20241;-68
2022/09/02 01:37:37;;;;;;;26.73;15.07;;;;;;;22.43;100.00;99440.63;5101417;28;20028;-67
2022/09/02 01:40:05;;;;;;;19.73;14.50;;;;;;;22.43;100.00;99436.06;5101535;28;20024;-67
2022/09/02 01:42:30;;;;;;;28.90;14.38;;;;;;;22.33;100.00;99448.56;5101286;28;20277;-67
2022/09/02 01:44:56;;;;;;;25.25;15.38;;;;;;;22.26;100.00;99449.56;5101451;28;20042;-68
2022/09/02 01:47:24;;;;;;;25.23;15.20;;;;;;;22.43;100.00;99446.03;5101626;28;20035;-68
2022/09/02 01:49:50;;;;;;;21.35;13.85;;;;;;;22.40;100.00;99436.56;5101464;28;20374;-68
2022/09/02 01:52:17;;;;;;;25.58;15.07;;;;;;;22.55;100.00;99450.28;5101219;28;20036;-68
2022/09/02 01:54:43;;;;;;;24.65;15.07;;;;;;;22.55;100.00;99452.97;5101036;28;20036;-68
2022/09/02 01:57:09;;;;;;;24.35;15.65;;;;;;;22.57;100.00;99452.72;5100944;28;20036;-68
2022/09/02 01:59:35;;;;;;;24.88;15.07;;;;;;;22.59;100.00;99453.28;5100854;28;20117;-67
2022/09/02 02:02:01;;;;;;;27.55;15.00;;;;;;;22.52;100.00;99448.06;5101160;28;20375;-68
2022/09/02 02:04:27;;;;;;;22.30;14.43;;;;;;;22.68;100.00;99449.09;5101233;28;20031;-68
2022/09/02 02:06:53;;;;;;;26.40;15.10;;;;;;;22.92;100.00;99445.19;5101158;28;20047;-68
2022/09/02 02:09:19;;;;;;;20.05;14.85;;;;;;;22.89;100.00;99453.78;5101070;28;20024;-68
2022/09/02 02:11:46;;;;;;;24.80;15.80;;;;;;;22.79;100.00;99448.19;5101224;28;20552;-68
2022/09/02 02:14:11;;;;;;;22.33;14.68;;;;;;;22.75;100.00;99449.75;5101131;28;20050;-68
2022/09/02 02:16:37;;;;;;;28.98;14.93;;;;;;;22.83;100.00;99449.34;5075703;28;20020;-68
2022/09/02 02:19:04;;;;;;;28.40;15.07;;;;;;;22.93;100.00;99451.41;5091889;28;20027;-68
2022/09/02 02:21:30;;;;;;;23.08;14.57;;;;;;;22.88;100.00;99445.91;5092130;28;20116;-68
2022/09/02 02:23:56;;;;;;;26.33;13.65;;;;;;;22.96;100.00;99453.59;5090453;28;20052;-68
2022/09/02 02:26:22;;;;;;;20.98;14.00;;;;;;;22.78;100.00;99457.34;5072386;28;20292;-68
2022/09/02 02:28:48;;;;;;;25.00;14.30;;;;;;;22.75;100.00;99447.06;5091095;28;20040;-68
2022/09/02 02:31:13;;;;;;;22.83;13.93;;;;;;;22.78;100.00;99454.66;5090635;28;20226;-67
2022/09/02 02:33:39;;;;;;;24.73;14.10;;;;;;;22.70;100.00;99435.38;5091965;28;20043;-68
2022/09/02 02:36:06;;;;;;;20.98;14.05;;;;;;;22.72;100.00;99444.84;5089501;28;20028;-68
2022/09/02 02:38:34;;;;;;;20.50;13.88;;;;;;;22.69;100.00;99437.25;5092789;28;20382;-68
2022/09/02 02:41:00;;;;;;;19.92;13.65;;;;;;;22.75;100.00;99438.97;5074031;28;20107;-67
2022/09/02 02:43:26;;;;;;;25.25;13.73;;;;;;;22.65;100.00;99425.31;5090675;28;20046;-68
2022/09/02 02:45:53;;;;;;;21.35;13.68;;;;;;;22.58;100.00;99435.47;5090295;28;20296;-68
2022/09/02 02:48:19;;;;;;;21.98;14.48;;;;;;;22.47;100.00;99436.38;5073998;28;20024;-68
2022/09/02 02:50:45;;;;;;;23.63;13.90;;;;;;;22.52;100.00;99434.56;5088992;28;20040;-68
2022/09/02 02:53:12;;;;;;;21.75;13.80;;;;;;;22.53;100.00;99438.09;5090988;28;20028;-67
2022/09/02 02:55:38;;;;;;;25.15;13.55;;;;;;;22.40;100.00;99436.56;5089408;28;20067;-68
2022/09/02 02:58:04;;;;;;;24.27;13.55;;;;;;;22.45;100.00;99436.63;5088693;28;20069;-68
2022/09/02 03:00:32;;;;;;;23.88;13.63;;;;;;;22.46;100.00;99437.44;5089664;28;20383;-68
2022/09/02 03:03:00;;;;;;;23.13;13.57;;;;;;;22.53;100.00;99444.31;5089396;28;20028;-68
2022/09/02 03:05:26;;;;;;;25.73;14.70;;;;;;;22.58;100.00;99432.78;5091340;28;20049;-68
2022/09/02 03:07:52;;;;;;;23.48;13.95;;;;;;;22.63;100.00;99428.25;5092177;28;20048;-67
2022/09/02 03:10:19;;;;;;;24.98;14.60;;;;;;;22.75;100.00;99433.56;5099124;28;20042;-68
2022/09/02 03:12:46;;;;;;;28.13;15.60;;;;;;;22.66;100.00;99434.22;5094990;28;20040;-68
2022/09/02 03:15:14;;;;;;;27.08;15.98;;;;;;;22.46;100.00;99413.16;5096248;28;20040;-68
2022/09/02 03:17:40;;;;;;;21.60;14.68;;;;;;;22.58;100.00;99432.78;5092647;28;20110;-67
2022/09/02 03:20:06;;;;;;;22.65;15.25;;;;;;;22.60;100.00;99433.34;5084328;28;20044;-67
2022/09/02 03:22:34;;;;;;;17.80;13.88;;;;;;;22.54;100.00;99428.94;5083889;28;20028;-67
2022/09/02 03:25:00;;;;;;;18.95;14.75;;;;;;;22.46;100.00;99432.88;5083686;28;20089;-68
2022/09/02 03:27:26;;;;;;;26.98;14.95;;;;;;;22.54;100.00;99424.34;5083258;28;20337;-68
2022/09/02 03:29:51;;;;;;;27.92;16.13;;;;;;;22.37;100.00;99430.84;5083365;28;20066;-67
2022/09/02 03:32:17;;;;;;;23.63;15.13;;;;;;;22.38;100.00;99435.97;5083860;28;20062;-67
2022/09/02 03:34:42;;;;;;;25.17;14.40;;;;;;;22.24;100.00;99432.81;5083803;28;20040;-67
2022/09/02 03:37:08;;;;;;;20.85;13.77;;;;;;;22.34;100.00;99442.94;5084570;28;20061;-68
2022/09/02 03:39:36;;;;;;;25.75;14.48;;;;;;;22.30;100.00;99441.78;5083097;28;20047;-68
2022/09/02 03:42:01;;;;;;;21.95;13.65;;;;;;;22.17;100.00;99442.13;5082949;28;20073;-67
2022/09/02 03:44:27;;;;;;;23.38;14.80;;;;;;;22.28;100.00;99442.03;5086091;28;20318;-68
2022/09/02 03:46:52;;;;;;;20.02;13.65;;;;;;;22.35;100.00;99446.44;5083670;28;20062;-68
2022/09/02 03:49:18;;;;;;;23.13;14.25;;;;;;;22.35;100.00;99447.25;5083452;28;20028;-68
2022/09/02 03:51:43;;;;;;;24.13;15.05;;;;;;;22.18;100.00;99449.97;5083193;28;20024;-67
2022/09/02 03:54:09;;;;;;;25.25;14.35;;;;;;;22.40;100.00;99451.94;5083247;28;20376;-68
2022/09/02 03:56:35;;;;;;;20.80;12.48;;;;;;;22.41;100.00;99461.66;5083120;28;20043;-67
2022/09/02 03:59:02;;;;;;;24.00;13.05;;;;;;;22.45;100.00;99452.00;5083722;28;20073;-68
2022/09/02 04:01:27;;;;;;;22.35;12.98;;;;;;;22.45;100.00;99450.13;5065093;28;20322;-67
2022/09/02 04:03:54;;;;;;;27.15;14.13;;;;;;;22.43;100.00;99464.91;5082641;28;20043;-67
2022/09/02 04:06:23;;;;;;;21.75;13.00;;;;;;;22.21;100.00;99457.56;5083804;28;20028;-67
2022/09/02 04:08:49;;;;;;;21.08;14.02;;;;;;;22.41;100.00;99465.16;5083833;28;20511;-67
2022/09/02 04:11:18;;;;;;;19.85;12.95;;;;;;;22.36;100.00;99469.66;5083495;28;20024;-67
2022/09/02 04:13:44;;;;;;;17.23;13.05;;;;;;;22.37;100.00;99463.22;5067019;28;20248;-68
2022/09/02 04:16:16;;;;;;;20.00;13.40;;;;;;;22.45;100.00;99469.00;5085368;28;20326;-67
2022/09/02 04:18:42;;;;;;;20.35;13.02;;;;;;;22.54;100.00;99466.72;5102260;28;20040;-68
2022/09/02 04:21:09;;;;;;;19.33;13.05;;;;;;;22.62;100.00;99469.81;5094709;28;20063;-68
2022/09/02 04:23:36;;;;;;;22.70;12.95;;;;;;;22.52;100.00;99471.53;5088511;28;20040;-68
2022/09/02 04:26:20;;;;;;;24.50;14.05;;;;;;;22.33;100.00;99472.84;5083451;28;20032;-68
2022/09/02 04:28:46;;;;;;;;;;;;;;;22.37;100.00;99474.00;5082520;28;20049;-68
2022/09/02 04:31:14;;;;;;;22.80;13.30;;;;;;;22.38;100.00;99470.22;5082472;28;19920;-68
2022/09/02 04:33:40;;;;;;;27.38;13.82;;;;;;;22.30;100.00;99479.56;5081939;28;20037;-68
2022/09/02 04:36:07;;;;;;;27.63;13.57;;;;;;;22.26;100.00;99478.41;5083709;28;20048;-68
2022/09/02 04:38:33;;;;;;;18.83;13.50;;;;;;;22.24;100.00;99488.63;5081854;28;20031;-68
2022/09/02 04:40:59;;;;;;;23.05;13.85;;;;;;;22.16;100.00;99479.06;5081614;28;20051;-68
2022/09/02 04:43:24;;;;;;;21.15;13.32;;;;;;;22.19;100.00;99483.97;5084164;28;20497;-67
2022/09/02 04:45:50;;;;;;;24.85;13.45;;;;;;;22.31;100.00;99486.59;5082634;28;20032;-68
2022/09/02 04:48:17;;;;;;;21.15;12.55;;;;;;;22.16;100.00;99484.44;5083675;28;20099;-67
2022/09/02 04:50:44;;;;;;;23.40;13.00;;;;;;;22.37;100.00;99488.31;5080604;28;20050;-67
2022/09/02 04:53:11;;;;;;;22.30;12.73;;;;;;;22.42;100.00;99490.25;5083215;28;20021;-68
2022/09/02 04:55:41;;;;;;;21.50;12.70;;;;;;;22.34;100.00;99490.66;5080098;28;20231;-68
2022/09/02 04:58:07;;;;;;;20.52;13.05;;;;;;;22.20;100.00;99493.69;5081025;28;20028;-67
2022/09/02 05:00:33;;;;;;;20.48;12.50;;;;;;;22.32;100.00;99492.78;5082780;28;20028;-68
2022/09/02 05:02:58;;;;;;;27.23;13.27;;;;;;;22.28;100.00;99482.50;5081192;28;20033;-67
2022/09/02 05:05:24;;;;;;;18.17;12.50;;;;;;;22.44;100.00;99480.03;5082568;28;20037;-67
2022/09/02 05:07:49;;;;;;;19.83;13.02;;;;;;;22.59;100.00;99486.50;5081823;28;20040;-67
2022/09/02 05:10:15;;;;;;;21.38;11.98;;;;;;;22.72;100.00;99496.13;5062273;28;20175;-67
2022/09/02 05:12:41;;;;;;;22.15;12.70;;;;;;;22.77;100.00;99492.69;5082542;28;20032;-68
2022/09/02 05:15:08;;;;;;;18.42;12.15;;;;;;;22.76;100.00;99491.88;5080957;28;20322;-68
2022/09/02 05:17:35;;;;;;;18.60;11.23;;;;;;;22.79;100.00;99498.66;5082353;28;20029;-68
2022/09/02 05:20:03;;;;;;;27.15;11.82;;;;;;;22.87;100.00;99488.28;5081367;28;20032;-67
2022/09/02 05:22:29;;;;;;;21.45;11.63;;;;;;;22.75;100.00;99490.25;5082654;28;20289;-67
2022/09/02 05:24:55;;;;;;;23.15;10.60;;;;;;;22.79;100.00;99488.69;5081064;28;20032;-67
2022/09/02 05:27:22;;;;;;;27.20;12.10;;;;;;;22.98;100.00;99481.19;5081892;28;20310;-67
2022/09/02 05:29:48;;;;;;;15.98;11.45;;;;;;;22.89;100.00;99467.28;5080571;28;20040;-67
2022/09/02 05:32:13;;;;;;;15.70;11.07;;;;;;;23.01;100.00;99474.47;5080657;28;20048;-68
2022/09/02 05:34:39;;;;;;;24.00;12.02;;;;;;;22.97;100.00;99471.44;5081280;28;20146;-68
2022/09/02 05:37:04;;;;;;;25.60;11.63;;;;;;;22.95;100.00;99473.56;5082474;28;20101;-68
2022/09/02 05:39:30;;;;;;;18.30;11.60;;;;;;;23.02;100.00;99468.00;5081145;28;20028;-68
2022/09/02 05:41:56;;;;;;;21.17;11.77;;;;;;;22.87;100.00;99457.78;5081890;28;20260;-68
2022/09/02 05:44:22;;;;;;;16.25;10.82;;;;;;;22.89;100.00;99466.47;5080807;28;20149;-68
2022/09/02 05:46:47;;;;;;;18.88;10.52;;;;;;;22.85;100.00;99462.59;5080613;28;20310;-67
2022/09/02 05:49:20;;;;;;;16.75;11.38;;;;;;;23.15;100.00;99467.63;5081839;28;20226;-68
2022/09/02 05:51:52;;;;;;;18.13;10.52;;;;;;;23.20;100.00;99465.00;5063459;28;20035;-67
2022/09/02 05:54:23;;;;;;;19.40;10.60;;;;;;;23.35;100.00;99461.66;5080183;28;20063;-68
2022/09/02 05:56:52;;;;;;;13.68;9.27;;;;;;;23.37;100.00;99473.03;5080576;28;20089;-68
2022/09/02 05:59:21;;;;;;;16.85;10.45;;;;;;;23.38;100.00;99467.38;5080727;28;20040;-68
2022/09/02 06:01:48;;;;;;;18.73;9.85;;;;;;;23.33;100.00;99474.59;5079557;28;20214;-68
2022/09/02 06:04:14;;;;;;;16.02;10.30;;;;;;;23.66;100.00;99476.34;5081711;28;20547;-67
2022/09/02 06:06:40;;;;;;;15.25;10.40;;;;;;;24.00;100.00;99482.41;5079899;28;20043;-67
2022/09/02 06:09:08;;;;;;;17.20;9.20;;;;;;;24.32;100.00;99485.16;5083147;28;20232;-68
2022/09/02 06:11:38;;;;;;;17.67;10.25;;;;;;;24.64;100.00;99485.13;5081624;28;20024;-68
2022/09/02 06:14:06;;;;;;;16.70;8.65;;;;;;;24.58;100.00;99489.69;5080043;28;20028;-68
2022/09/02 06:16:32;;;;;;;15.57;10.18;;;;;;;24.45;100.00;99503.69;5064130;28;20024;-67
2022/09/02 06:18:58;;;;;;;18.40;9.73;;;;;;;24.29;100.00;99510.03;5083880;28;20043;-68
2022/09/02 06:21:23;;;;;;;17.60;10.25;;;;;;;24.20;100.00;99483.41;5094361;28;20024;-67
2022/09/02 06:23:49;;;;;;;17.95;10.32;;;;;;;24.19;100.00;99489.91;5092849;28;20044;-67
2022/09/02 06:26:16;;;;;;;19.38;10.10;;;;;;;24.27;100.00;99483.22;5093662;28;20032;-68
2022/09/02 06:28:42;;;;;;;16.58;9.73;;;;;;;24.32;100.00;99498.69;5091218;28;20024;-67
2022/09/02 06:31:16;;;;;;;21.65;10.65;;;;;;;24.52;100.00;99491.56;5094428;28;20055;-68
2022/09/02 06:33:44;;;;;;;16.52;9.32;;;;;;;24.46;100.00;99497.19;5090923;28;20099;-68
2022/09/02 06:36:13;;;;;;;20.00;8.95;;;;;;;24.49;100.00;99500.19;5089913;28;20022;-68
2022/09/02 06:38:42;;;;;;;14.38;8.93;;;;;;;24.51;100.00;99495.34;5091147;28;20040;-68
2022/09/02 06:41:11;;;;;;;15.60;8.95;;;;;;;24.42;100.00;99501.47;5091585;28;22071;-68
2022/09/02 06:43:36;;;;;;;18.50;9.40;;;;;;;24.26;100.00;99497.81;5094772;28;20028;-67
2022/09/02 06:46:02;;;;;;;21.60;8.80;;;;;;;24.09;100.00;99505.22;5100154;28;20035;-67
2022/09/02 06:48:28;;;;;;;15.75;8.93;;;;;;;24.05;100.00;99507.63;5094415;28;20059;-67
2022/09/02 06:50:54;;;;;;;18.23;9.90;;;;;;;24.04;100.00;99507.88;5096048;28;20016;-67
2022/09/02 06:53:19;;;;;;;14.35;10.13;;;;;;;24.08;100.00;99507.09;5098182;28;20028;-68
2022/09/02 06:55:45;;;;;;;19.08;9.90;;;;;;;23.98;100.00;99509.72;5078187;28;20266;-67
2022/09/02 06:58:13;;;;;;;17.23;10.98;;;;;;;24.10;100.00;99520.38;5094642;28;20032;-67
2022/09/02 07:00:40;;;;;;;18.90;10.18;;;;;;;24.32;100.00;99517.63;5097206;28;20031;-67
2022/09/02 07:05:59;;;;;;;18.63;10.88;;;;;;;24.35;100.00;99517.94;5094705;28;20150;-67
2022/09/02 07:08:25;;;;;;;20.58;11.15;;;;;;;24.33;100.00;99522.78;5096000;28;20055;-68
2022/09/02 07:10:50;;;;;;;17.80;9.98;;;;;;;24.55;100.00;99528.13;5098094;28;20028;-68
2022/09/02 07:13:16;;;;;;;16.90;10.25;;;;;;;24.81;100.00;99515.56;5083160;28;20024;-68
2022/09/02 07:15:41;;;;;;;17.08;9.52;;;;;;;24.86;99.19;99520.22;5085818;28;20024;-68
2022/09/02 07:18:07;;;;;;;16.60;10.25;;;;;;;24.83;99.12;99516.94;5104275;28;20032;-68
2022/09/02 07:20:32;;;;;;;16.23;11.13;;;;;;;25.03;97.67;99519.03;5103631;28;20229;-68
2022/09/02 07:22:57;;;;;;;15.43;11.07;;;;;;;25.02;98.00;99522.00;5104475;28;20340;-68
2022/09/02 07:25:23;;;;;;;15.57;10.25;;;;;;;24.90;97.74;99519.44;5103742;28;20318;-68
2022/09/02 07:27:50;;;;;;;16.73;10.48;;;;;;;25.11;97.96;99517.72;5085739;28;20244;-67
2022/09/02 07:30:16;;;;;;;15.35;10.15;;;;;;;25.26;96.91;99520.50;5104249;28;20389;-68
2022/09/02 07:32:42;;;;;;;13.65;9.77;;;;;;;25.28;96.08;99520.25;5104011;28;20230;-67
2022/09/02 07:35:08;;;;;;;16.85;9.70;;;;;;;25.59;95.04;99505.75;5103447;28;20036;-68
2022/09/02 07:37:34;;;;;;;17.65;10.27;;;;;;;25.94;94.31;99496.09;5103899;28;21068;-68
2022/09/02 07:40:02;;;;;;;20.00;10.05;;;;;;;26.20;90.40;99510.53;5086464;28;20028;-68
2022/09/02 07:42:28;;;;;;;15.02;9.07;;;;;;;26.44;87.86;99522.53;5103554;28;20032;-68
2022/09/02 07:44:54;;;;;;;17.33;9.63;;;;;;;26.48;88.63;99515.47;5103622;28;20375;-68
2022/09/02 07:47:19;;;;;;;15.35;9.13;;;;;;;26.19;89.37;99517.88;5103718;28;20248;-68
2022/09/02 07:49:45;;;;;;;17.80;8.98;;;;;;;26.15;90.53;99518.69;5103311;28;20080;-68
2022/09/02 07:52:11;;;;;;;16.10;9.25;;;;;;;26.25;90.47;99524.94;5103850;28;20137;-68
2022/09/02 07:54:36;;;;;;;14.50;8.98;;;;;;;26.25;89.20;99516.78;5102372;28;20063;-68
2022/09/02 07:57:02;;;;;;;18.92;9.57;;;;;;;26.37;88.31;99528.22;5103612;28;20020;-68
2022/09/02 07:59:29;;;;;;;12.77;9.23;;;;;;;26.25;87.28;99526.81;5103520;28;20047;-68
2022/09/02 08:01:55;;;;;;;14.65;9.75;;;;;;;26.21;88.94;99517.59;5103392;28;20111;-68
2022/09/02 08:04:23;;;;;;;16.80;10.23;;;;;;;26.17;87.83;99533.59;5103356;28;20032;-68
2022/09/02 08:06:50;;;;;;;20.95;9.38;;;;;;;26.15;87.71;99534.97;5103310;28;20032;-68
2022/09/02 08:09:16;;;;;;;15.10;8.73;;;;;;;26.23;87.44;99521.66;5103338;28;20040;-68
2022/09/02 08:11:46;;;;;;;15.38;8.80;;;;;;;26.16;88.03;99526.53;5103446;28;20089;-68
2022/09/02 08:14:16;;;;;;;21.40;9.45;;;;;;;25.94;88.26;99515.91;5103154;28;20032;-68
2022/09/02 08:16:41;;;;;;;16.33;8.82;;;;;;;26.13;87.25;99518.94;5103110;28;20077;-68
2022/09/02 08:19:07;;;;;;;14.70;9.20;;;;;;;26.27;87.32;99513.81;5084793;28;20043;-68
2022/09/02 08:21:33;;;;;;;15.82;8.88;;;;;;;26.18;86.97;99501.84;5102823;28;20328;-69
2022/09/02 08:23:59;;;;;;;22.15;9.25;;;;;;;26.36;85.96;99512.22;5102618;28;20036;-68
2022/09/02 08:26:27;;;;;;;16.23;9.70;;;;;;;26.32;85.73;99511.94;5102986;28;20028;-68
2022/09/02 08:28:55;;;;;;;17.92;9.63;;;;;;;26.12;87.81;99492.06;5102554;28;20302;-68
2022/09/02 08:31:21;;;;;;;14.77;9.65;;;;;;;26.19;87.13;99500.78;5099961;28;20054;-68
2022/09/02 08:33:46;;;;;;;17.90;9.68;;;;;;;26.32;84.16;99495.66;5091281;28;20121;-68
2022/09/02 08:36:13;;;;;;;21.98;10.13;;;;;;;26.20;84.62;99492.34;5094105;28;20024;-68
2022/09/02 08:38:40;;;;;;;18.17;9.70;;;;;;;26.14;85.56;99495.34;5090192;28;20346;-68
2022/09/02 08:41:31;;;;;;;14.80;9.90;;;;;;;25.90;86.11;99482.25;5093424;28;20039;-68
2022/09/02 08:44:00;;;;;;;17.50;8.98;;;;;;;25.90;85.87;99486.88;5090466;28;20218;-68
2022/09/02 08:46:30;;;;;;;19.20;9.73;;;;;;;25.90;86.52;99489.56;5091363;28;20083;-68
2022/09/02 08:48:55;;;;;;;16.10;9.50;;;;;;;25.80;87.96;99479.53;5091843;28;20203;-68
2022/09/02 08:51:28;;;;;;;15.85;10.20;;;;;;;25.86;89.24;99472.22;5094220;28;20031;-68
2022/09/02 08:54:03;;;;;;;24.08;10.80;;;;;;;25.86;89.83;99456.75;5090591;28;20055;-67
2022/09/02 08:56:30;;;;;;;18.58;10.90;;;;;;;25.86;90.14;99475.72;5092804;28;20046;-68
2022/09/02 08:58:56;;;;;;;15.95;9.73;;;;;;;25.66;90.06;99472.97;5091775;28;20042;-68
2022/09/02 09:02:16;;;;;;;16.58;9.70;;;;;;;25.50;90.56;99482.13;5076917;28;20016;-68
2022/09/02 09:05:07;;;;;;;18.42;10.07;;;;;;;25.42;90.05;99472.59;4990127;28;20048;-68
2022/09/02 09:07:59;;;;;;;19.67;10.55;;;;;;;25.52;89.95;99469.13;5090257;28;20330;-68
2022/09/02 09:10:55;;;;;;;18.05;10.15;;;;;;;25.55;90.31;99452.31;5092340;28;20038;-68
2022/09/02 09:13:39;;;;;;;19.10;10.90;;;;;;;25.33;91.15;99460.66;5091914;28;20222;-68
2022/09/02 09:16:51;;;;;;;20.20;11.23;;;;;;;25.70;89.89;99455.91;5075417;28;20419;-67
2022/09/02 09:19:53;;;;;;;18.38;11.27;;;;;;;25.72;88.78;99450.22;5054623;28;20079;-68
2022/09/02 09:22:27;;;;;;;19.13;11.65;;;;;;;25.75;88.95;99461.34;5095497;28;20062;-68
2022/09/02 09:24:55;;;;;;;;;;;;;;;25.63;89.92;99468.06;5093766;28;20044;-68
2022/09/02 09:27:22;;;;;;;23.55;12.20;;;;;;;25.78;89.18;99476.25;5091386;28;19920;-68
2022/09/02 09:29:49;;;;;;;20.30;13.43;;;;;;;25.70;89.41;99485.75;5092066;28;20336;-68
2022/09/02 09:32:35;;;;;;;18.67;12.60;;;;;;;25.74;90.35;99483.31;5092877;28;20101;-67
2022/09/02 09:35:03;;;;;;;19.65;12.40;;;;;;;25.77;91.50;99463.78;5094536;28;20031;-68
2022/09/02 09:37:30;;;;;;;18.52;12.40;;;;;;;25.88;91.73;99459.19;5090057;28;20191;-68
2022/09/02 09:39:55;;;;;;;20.85;13.20;;;;;;;25.81;92.91;99459.44;5093294;28;20032;-68
2022/09/02 09:42:36;;;;;;;21.30;12.57;;;;;;;25.73;93.70;99459.97;5092908;28;20027;-68
2022/09/02 09:45:30;;;;;;;17.55;13.43;;;;;;;25.86;93.98;99454.03;5075215;28;20067;-68
2022/09/02 09:48:26;;;;;;;21.70;13.48;;;;;;;25.74;94.93;99445.34;5091254;28;20102;-68
2022/09/02 09:50:55;;;;;;;21.50;13.05;;;;;;;25.77;95.18;99452.94;5095017;28;20032;-68
2022/09/02 09:53:26;;;;;;;19.10;12.90;;;;;;;25.73;96.45;99460.78;5076755;28;20028;-68
2022/09/02 09:55:56;;;;;;;25.25;13.13;;;;;;;25.78;97.51;99468.13;5090356;28;20353;-68
2022/09/02 09:58:29;;;;;;;22.90;13.43;;;;;;;25.91;96.90;99462.19;5073232;28;20028;-68
2022/09/02 10:00:59;;;;;;;19.60;13.48;;;;;;;26.03;98.70;99460.06;5093368;28;20066;-68
2022/09/02 10:03:29;;;;;;;26.80;14.13;;;;;;;26.19;99.90;99460.06;5092765;28;20039;-68
2022/09/02 10:05:57;;;;;;;27.77;16.40;;;;;;;26.14;100.00;99458.16;5095478;28;20039;-68
2022/09/02 10:08:26;;;;;;;48.17;20.55;;;;;;;26.24;100.00;99449.22;5091860;28;20081;-68
2022/09/02 10:10:54;;;;;;;39.97;20.27;;;;;;;26.09;100.00;99460.88;5092447;28;20035;-68
2022/09/02 10:13:27;;;;;;;38.47;22.45;;;;;;;25.79;100.00;99467.03;5090757;28;20039;-68
2022/09/02 10:15:58;;;;;;;41.00;21.48;;;;;;;25.66;100.00;99472.97;5090207;28;20130;-68
2022/09/02 10:18:54;;;;;;;32.22;22.70;;;;;;;25.46;100.00;99490.78;5075384;28;20271;-68
2022/09/02 10:21:38;;;;;;;37.08;23.10;;;;;;;25.31;100.00;99496.16;5091734;28;20033;-67
2022/09/02 10:24:31;;;;;;;38.05;24.40;;;;;;;25.10;100.00;99508.78;5093645;28;20028;-68
2022/09/02 10:26:59;;;;;;;35.67;23.98;;;;;;;25.13;100.00;99512.84;5093030;28;20024;-68
2022/09/02 10:29:53;;;;;;;35.65;23.80;;;;;;;25.00;100.00;99503.31;5090731;28;20032;-68
2022/09/02 10:32:35;;;;;;;36.55;24.95;;;;;;;24.90;100.00;99500.47;5091346;28;20067;-68
2022/09/02 10:35:35;;;;;;;39.80;24.08;;;;;;;24.93;100.00;99504.56;5090769;28;21078;-68
2022/09/02 10:38:07;;;;;;;38.75;24.38;;;;;;;25.03;100.00;99504.66;5090590;28;20253;-68
2022/09/02 10:40:44;;;;;;;37.92;24.45;;;;;;;25.06;100.00;99493.31;5093412;28;20036;-68
2022/09/02 10:43:26;;;;;;;36.15;24.20;;;;;;;25.08;100.00;99502.00;5091452;28;20109;-68
2022/09/02 10:46:00;;;;;;;33.15;23.52;;;;;;;25.06;100.00;99506.84;5092550;28;20051;-68
2022/09/02 10:48:34;;;;;;;40.78;26.92;;;;;;;25.04;100.00;99511.72;5089672;28;20099;-68
2022/09/02 10:50:59;;;;;;;39.65;27.90;;;;;;;25.09;100.00;99511.75;5091020;28;20038;-68
2022/09/02 10:53:37;;;;;;;36.13;26.13;;;;;;;24.95;100.00;99510.53;5092659;28;20079;-68
2022/09/02 10:56:25;;;;;;;38.65;25.50;;;;;;;24.89;100.00;99516.97;5091563;28;20034;-68
2022/09/02 10:59:15;;;;;;;39.47;25.45;;;;;;;24.81;100.00;99489.31;5092003;28;20048;-68
2022/09/02 11:02:03;;;;;;;35.72;24.50;;;;;;;25.07;100.00;99509.31;5092595;28;20056;-68
2022/09/02 11:04:50;;;;;;;27.45;18.17;;;;;;;24.62;100.00;99485.41;5088725;28;20062;-68
2022/09/02 11:07:23;;;;;;;12.80;8.02;;;;;;;24.35;100.00;99496.28;5088371;28;20032;-68
2022/09/02 11:09:59;;;;;;;7.22;5.45;;;;;;;24.27;100.00;99509.47;5093905;28;20042;-68
2022/09/02 11:12:32;;;;;;;7.75;4.57;;;;;;;24.46;96.13;99516.94;5090790;28;20047;-68
2022/09/02 11:15:28;;;;;;;8.13;4.65;;;;;;;24.62;95.66;99519.78;5095198;28;20036;-68
2022/09/02 11:18:24;;;;;;;6.80;4.97;;;;;;;24.40;99.56;99504.44;5093170;28;20318;-68
2022/09/02 11:21:03;;;;;;;6.15;4.72;;;;;;;24.56;95.73;99502.69;5091659;28;20055;-68
2022/09/02 11:24:04;;;;;;;7.30;4.65;;;;;;;24.61;96.64;99510.84;5092476;28;20326;-68
2022/09/02 11:26:37;;;;;;;5.40;4.60;;;;;;;24.73;97.90;99511.47;5057422;28;20048;-68
2022/09/02 11:29:14;;;;;;;10.27;5.70;;;;;;;24.84;97.99;99515.06;5093433;28;20063;-69